Page Municipal Airport Page US
ICAO: KPGA
IATA: PGA
Category: Medium
Scheduled Services: No

Elevation: 4316 ft
TransAlt. 18000 ft.

Airport Communications:
ASOS:120.625
DENVER CNTR:127.55
PRESCOTT RDO:122.45
CTAF/UNICOM:122.8

KPGA Zoom In..

Runways:

(A) RW 07 length 2201 ft width 75 ft
---- / hdg 68

(B) RW 15 length 5950 ft width 150 ft
---- / hdg 156

(C) RW 25 length 2201 ft width 75 ft
---- / hdg 248

(D) RW 33 length 5950 ft width 150 ft
---- / hdg 336

Location; KPGA
Day. 20 / Time. 19.53 Zulu
* Altimeter: 30.09
* Temperature: 34° c. 93.2°f.
* Wind from: VRB° Speed 04 kn.
Dewpoint: 11° c.
Visibility: 10 Statute Miles.
Clouds: Clear (automated report).

KPGA 201953Z AUTO VRB04KT 10SM CLR 34/11 A3009 RMK AO2 SLP114 T03440106 TSNO


Wind From VRB°
Speed 04 kn.

 
 
jpsmedia.com for Web Design worldairports.se 2018   terms of use